sensor_id;sensor_type;location;lat;lon;timestamp;temperature;humidity
25668;DHT22;18003;-33.830;151.202;2023-05-16T00:01:21;16.10;99.90
25668;DHT22;18003;-33.830;151.202;2023-05-16T00:03:52;16.10;99.90
25668;DHT22;18003;-33.830;151.202;2023-05-16T00:06:22;16.10;99.90
25668;DHT22;18003;-33.830;151.202;2023-05-16T00:08:52;16.10;99.90
25668;DHT22;18003;-33.830;151.202;2023-05-16T00:11:26;16.10;99.90
25668;DHT22;18003;-33.830;151.202;2023-05-16T00:13:53;16.10;99.90
25668;DHT22;18003;-33.830;151.202;2023-05-16T00:16:24;16.10;99.90
25668;DHT22;18003;-33.830;151.202;2023-05-16T00:18:53;16.10;99.90
25668;DHT22;18003;-33.830;151.202;2023-05-16T00:21:24;16.20;99.90
25668;DHT22;18003;-33.830;151.202;2023-05-16T00:23:54;16.10;99.90
25668;DHT22;18003;-33.830;151.202;2023-05-16T00:26:25;16.10;99.90
25668;DHT22;18003;-33.830;151.202;2023-05-16T00:28:54;16.20;99.90
25668;DHT22;18003;-33.830;151.202;2023-05-16T00:31:25;16.20;99.90
25668;DHT22;18003;-33.830;151.202;2023-05-16T00:33:54;16.20;99.90
25668;DHT22;18003;-33.830;151.202;2023-05-16T00:36:29;16.20;99.90
25668;DHT22;18003;-33.830;151.202;2023-05-16T00:38:56;16.20;99.90
25668;DHT22;18003;-33.830;151.202;2023-05-16T00:41:32;16.20;99.90
25668;DHT22;18003;-33.830;151.202;2023-05-16T00:43:57;16.20;99.90
25668;DHT22;18003;-33.830;151.202;2023-05-16T00:46:27;16.20;99.90
25668;DHT22;18003;-33.830;151.202;2023-05-16T00:48:57;16.20;99.90
25668;DHT22;18003;-33.830;151.202;2023-05-16T00:51:27;16.20;99.90
25668;DHT22;18003;-33.830;151.202;2023-05-16T00:53:57;16.30;99.90
25668;DHT22;18003;-33.830;151.202;2023-05-16T00:56:27;16.30;99.90
25668;DHT22;18003;-33.830;151.202;2023-05-16T00:58:57;16.30;99.90
25668;DHT22;18003;-33.830;151.202;2023-05-16T01:01:27;16.30;99.90
25668;DHT22;18003;-33.830;151.202;2023-05-16T01:03:58;16.30;99.90
25668;DHT22;18003;-33.830;151.202;2023-05-16T01:06:28;16.30;99.90
25668;DHT22;18003;-33.830;151.202;2023-05-16T01:09:00;16.40;99.90
25668;DHT22;18003;-33.830;151.202;2023-05-16T01:11:35;16.40;99.90
25668;DHT22;18003;-33.830;151.202;2023-05-16T01:14:25;16.40;99.90
25668;DHT22;18003;-33.830;151.202;2023-05-16T01:17:06;16.40;99.90
25668;DHT22;18003;-33.830;151.202;2023-05-16T01:19:46;16.40;99.90
25668;DHT22;18003;-33.830;151.202;2023-05-16T01:28:14;16.50;99.90
25668;DHT22;18003;-33.830;151.202;2023-05-16T01:30:44;16.50;99.90
25668;DHT22;18003;-33.830;151.202;2023-05-16T01:33:15;16.50;99.90
25668;DHT22;18003;-33.830;151.202;2023-05-16T01:35:58;16.50;99.90
25668;DHT22;18003;-33.830;151.202;2023-05-16T01:38:24;16.50;99.90
25668;DHT22;18003;-33.830;151.202;2023-05-16T01:41:07;16.50;99.90
25668;DHT22;18003;-33.830;151.202;2023-05-16T01:43:47;16.60;99.90
25668;DHT22;18003;-33.830;151.202;2023-05-16T01:46:14;16.60;99.90
25668;DHT22;18003;-33.830;151.202;2023-05-16T01:48:52;16.60;99.90
25668;DHT22;18003;-33.830;151.202;2023-05-16T01:51:22;16.60;99.90
25668;DHT22;18003;-33.830;151.202;2023-05-16T01:53:51;16.60;99.90
25668;DHT22;18003;-33.830;151.202;2023-05-16T01:56:22;16.60;99.90
25668;DHT22;18003;-33.830;151.202;2023-05-16T01:58:55;16.60;99.90
25668;DHT22;18003;-33.830;151.202;2023-05-16T02:01:26;16.60;99.90
25668;DHT22;18003;-33.830;151.202;2023-05-16T02:03:56;16.60;99.90
25668;DHT22;18003;-33.830;151.202;2023-05-16T02:06:26;16.60;99.90
25668;DHT22;18003;-33.830;151.202;2023-05-16T02:08:56;16.60;99.90
25668;DHT22;18003;-33.830;151.202;2023-05-16T02:11:26;16.70;99.90
25668;DHT22;18003;-33.830;151.202;2023-05-16T02:13:56;16.70;99.90
25668;DHT22;18003;-33.830;151.202;2023-05-16T02:16:28;16.70;99.90
25668;DHT22;18003;-33.830;151.202;2023-05-16T02:18:57;16.70;99.90
25668;DHT22;18003;-33.830;151.202;2023-05-16T02:21:27;16.70;99.90
25668;DHT22;18003;-33.830;151.202;2023-05-16T02:24:01;16.70;99.90
25668;DHT22;18003;-33.830;151.202;2023-05-16T02:26:31;16.70;99.90
25668;DHT22;18003;-33.830;151.202;2023-05-16T02:29:01;16.70;99.90
25668;DHT22;18003;-33.830;151.202;2023-05-16T02:31:32;16.80;99.90
25668;DHT22;18003;-33.830;151.202;2023-05-16T02:34:05;16.70;99.90
25668;DHT22;18003;-33.830;151.202;2023-05-16T02:36:35;16.80;99.90
25668;DHT22;18003;-33.830;151.202;2023-05-16T02:39:06;16.80;99.90
25668;DHT22;18003;-33.830;151.202;2023-05-16T02:41:37;16.80;99.90
25668;DHT22;18003;-33.830;151.202;2023-05-16T02:44:07;16.80;99.90
25668;DHT22;18003;-33.830;151.202;2023-05-16T02:46:38;16.80;99.90
25668;DHT22;18003;-33.830;151.202;2023-05-16T02:49:08;16.80;99.90
25668;DHT22;18003;-33.830;151.202;2023-05-16T02:51:38;16.80;99.90
25668;DHT22;18003;-33.830;151.202;2023-05-16T02:54:09;16.80;99.90
25668;DHT22;18003;-33.830;151.202;2023-05-16T02:56:39;16.80;99.90
25668;DHT22;18003;-33.830;151.202;2023-05-16T02:59:09;16.90;99.90
25668;DHT22;18003;-33.830;151.202;2023-05-16T03:01:45;16.90;99.90
25668;DHT22;18003;-33.830;151.202;2023-05-16T03:04:11;16.90;99.90
25668;DHT22;18003;-33.830;151.202;2023-05-16T03:06:41;16.90;99.90
25668;DHT22;18003;-33.830;151.202;2023-05-16T03:09:11;16.90;99.90
25668;DHT22;18003;-33.830;151.202;2023-05-16T03:11:41;16.90;99.90
25668;DHT22;18003;-33.830;151.202;2023-05-16T03:14:11;16.90;99.90
25668;DHT22;18003;-33.830;151.202;2023-05-16T03:16:41;16.90;99.90
25668;DHT22;18003;-33.830;151.202;2023-05-16T03:19:11;16.90;99.90
25668;DHT22;18003;-33.830;151.202;2023-05-16T03:21:42;16.90;99.90
25668;DHT22;18003;-33.830;151.202;2023-05-16T03:24:12;17.00;99.90
25668;DHT22;18003;-33.830;151.202;2023-05-16T03:26:43;17.00;99.90
25668;DHT22;18003;-33.830;151.202;2023-05-16T03:29:15;17.00;99.90
25668;DHT22;18003;-33.830;151.202;2023-05-16T03:31:45;17.00;99.90
25668;DHT22;18003;-33.830;151.202;2023-05-16T03:34:15;17.00;99.90
25668;DHT22;18003;-33.830;151.202;2023-05-16T03:42:43;17.10;99.90
25668;DHT22;18003;-33.830;151.202;2023-05-16T03:45:16;17.10;99.90
25668;DHT22;18003;-33.830;151.202;2023-05-16T03:47:48;17.10;99.90
25668;DHT22;18003;-33.830;151.202;2023-05-16T03:50:21;17.10;99.90
25668;DHT22;18003;-33.830;151.202;2023-05-16T03:52:49;17.10;99.90
25668;DHT22;18003;-33.830;151.202;2023-05-16T03:55:54;17.10;99.90
25668;DHT22;18003;-33.830;151.202;2023-05-16T03:58:24;17.10;99.90
25668;DHT22;18003;-33.830;151.202;2023-05-16T04:00:55;17.10;99.90
25668;DHT22;18003;-33.830;151.202;2023-05-16T04:03:25;17.10;99.90
25668;DHT22;18003;-33.830;151.202;2023-05-16T04:05:57;17.10;99.90
25668;DHT22;18003;-33.830;151.202;2023-05-16T04:08:28;17.00;99.90
25668;DHT22;18003;-33.830;151.202;2023-05-16T04:10:59;17.10;99.90
25668;DHT22;18003;-33.830;151.202;2023-05-16T04:13:29;17.10;99.90
25668;DHT22;18003;-33.830;151.202;2023-05-16T04:15:59;17.10;99.90
25668;DHT22;18003;-33.830;151.202;2023-05-16T04:18:29;17.10;99.90
25668;DHT22;18003;-33.830;151.202;2023-05-16T04:20:59;17.10;99.90
25668;DHT22;18003;-33.830;151.202;2023-05-16T04:23:30;17.10;99.90
25668;DHT22;18003;-33.830;151.202;2023-05-16T04:26:00;17.10;99.90
25668;DHT22;18003;-33.830;151.202;2023-05-16T04:28:31;17.10;99.90
25668;DHT22;18003;-33.830;151.202;2023-05-16T04:31:01;17.10;99.90
25668;DHT22;18003;-33.830;151.202;2023-05-16T04:33:31;17.10;99.90
25668;DHT22;18003;-33.830;151.202;2023-05-16T04:36:01;17.10;99.90
25668;DHT22;18003;-33.830;151.202;2023-05-16T04:38:33;17.10;99.90
25668;DHT22;18003;-33.830;151.202;2023-05-16T04:41:02;17.10;99.90
25668;DHT22;18003;-33.830;151.202;2023-05-16T04:43:32;17.10;99.90
25668;DHT22;18003;-33.830;151.202;2023-05-16T04:46:02;17.00;99.90
25668;DHT22;18003;-33.830;151.202;2023-05-16T04:48:32;17.00;99.90
25668;DHT22;18003;-33.830;151.202;2023-05-16T04:51:02;17.00;99.90
25668;DHT22;18003;-33.830;151.202;2023-05-16T04:53:32;17.10;99.90
25668;DHT22;18003;-33.830;151.202;2023-05-16T04:56:03;17.10;99.90
25668;DHT22;18003;-33.830;151.202;2023-05-16T04:58:33;17.00;99.90
25668;DHT22;18003;-33.830;151.202;2023-05-16T05:01:07;17.00;99.90
25668;DHT22;18003;-33.830;151.202;2023-05-16T05:03:34;17.00;99.90
25668;DHT22;18003;-33.830;151.202;2023-05-16T05:06:04;17.00;99.90
25668;DHT22;18003;-33.830;151.202;2023-05-16T05:08:34;17.00;99.90
25668;DHT22;18003;-33.830;151.202;2023-05-16T05:11:04;17.10;99.90
25668;DHT22;18003;-33.830;151.202;2023-05-16T05:13:34;17.00;99.90
25668;DHT22;18003;-33.830;151.202;2023-05-16T05:16:05;17.00;99.90
25668;DHT22;18003;-33.830;151.202;2023-05-16T05:18:35;17.10;99.90
25668;DHT22;18003;-33.830;151.202;2023-05-16T05:21:05;17.00;99.90
25668;DHT22;18003;-33.830;151.202;2023-05-16T05:23:35;17.00;99.90
25668;DHT22;18003;-33.830;151.202;2023-05-16T05:26:06;17.00;99.90
25668;DHT22;18003;-33.830;151.202;2023-05-16T05:28:36;17.00;99.90
25668;DHT22;18003;-33.830;151.202;2023-05-16T05:31:06;17.00;99.90
25668;DHT22;18003;-33.830;151.202;2023-05-16T05:33:36;17.10;99.90
25668;DHT22;18003;-33.830;151.202;2023-05-16T05:36:06;17.00;99.90
25668;DHT22;18003;-33.830;151.202;2023-05-16T05:38:36;17.00;99.90
25668;DHT22;18003;-33.830;151.202;2023-05-16T05:41:07;17.00;99.90
25668;DHT22;18003;-33.830;151.202;2023-05-16T05:43:38;17.00;99.90
25668;DHT22;18003;-33.830;151.202;2023-05-16T05:46:09;17.00;99.90
25668;DHT22;18003;-33.830;151.202;2023-05-16T05:48:39;17.00;99.90
25668;DHT22;18003;-33.830;151.202;2023-05-16T05:51:09;17.00;99.90
25668;DHT22;18003;-33.830;151.202;2023-05-16T05:53:39;17.00;99.90
25668;DHT22;18003;-33.830;151.202;2023-05-16T05:56:09;17.00;99.90
25668;DHT22;18003;-33.830;151.202;2023-05-16T05:58:39;17.00;99.90
25668;DHT22;18003;-33.830;151.202;2023-05-16T06:01:12;17.00;99.90
25668;DHT22;18003;-33.830;151.202;2023-05-16T06:03:42;17.00;99.90
25668;DHT22;18003;-33.830;151.202;2023-05-16T06:06:12;16.90;99.90
25668;DHT22;18003;-33.830;151.202;2023-05-16T06:08:43;16.90;99.90
25668;DHT22;18003;-33.830;151.202;2023-05-16T06:11:13;16.90;99.90
25668;DHT22;18003;-33.830;151.202;2023-05-16T06:13:43;16.90;99.90
25668;DHT22;18003;-33.830;151.202;2023-05-16T06:16:13;16.80;99.90
25668;DHT22;18003;-33.830;151.202;2023-05-16T06:18:43;16.90;99.90
25668;DHT22;18003;-33.830;151.202;2023-05-16T06:21:13;16.80;99.90
25668;DHT22;18003;-33.830;151.202;2023-05-16T06:23:44;16.90;99.90
25668;DHT22;18003;-33.830;151.202;2023-05-16T06:26:14;16.90;99.90
25668;DHT22;18003;-33.830;151.202;2023-05-16T06:28:45;16.90;99.90
25668;DHT22;18003;-33.830;151.202;2023-05-16T06:31:15;16.90;99.90
25668;DHT22;18003;-33.830;151.202;2023-05-16T06:33:45;16.90;99.90
25668;DHT22;18003;-33.830;151.202;2023-05-16T06:36:15;16.80;99.90
25668;DHT22;18003;-33.830;151.202;2023-05-16T06:38:44;16.80;99.90
25668;DHT22;18003;-33.830;151.202;2023-05-16T06:41:15;16.80;99.90
25668;DHT22;18003;-33.830;151.202;2023-05-16T06:43:45;16.80;99.90
25668;DHT22;18003;-33.830;151.202;2023-05-16T06:46:15;16.80;99.90
25668;DHT22;18003;-33.830;151.202;2023-05-16T06:48:45;16.80;99.90
25668;DHT22;18003;-33.830;151.202;2023-05-16T06:51:15;16.80;99.90
25668;DHT22;18003;-33.830;151.202;2023-05-16T06:53:45;16.80;99.90
25668;DHT22;18003;-33.830;151.202;2023-05-16T06:56:15;16.80;99.90
25668;DHT22;18003;-33.830;151.202;2023-05-16T06:58:45;16.80;99.90
25668;DHT22;18003;-33.830;151.202;2023-05-16T07:01:16;16.80;99.90
25668;DHT22;18003;-33.830;151.202;2023-05-16T07:03:46;16.80;99.90
25668;DHT22;18003;-33.830;151.202;2023-05-16T07:06:17;16.80;99.90
25668;DHT22;18003;-33.830;151.202;2023-05-16T07:08:47;16.80;99.90
25668;DHT22;18003;-33.830;151.202;2023-05-16T07:11:17;16.80;99.90
25668;DHT22;18003;-33.830;151.202;2023-05-16T07:13:47;16.80;99.90
25668;DHT22;18003;-33.830;151.202;2023-05-16T07:16:17;16.80;99.90
25668;DHT22;18003;-33.830;151.202;2023-05-16T07:18:47;16.80;99.90
25668;DHT22;18003;-33.830;151.202;2023-05-16T07:21:17;16.70;99.90
25668;DHT22;18003;-33.830;151.202;2023-05-16T07:23:47;16.70;99.90
25668;DHT22;18003;-33.830;151.202;2023-05-16T07:26:25;16.70;99.90
25668;DHT22;18003;-33.830;151.202;2023-05-16T07:28:52;16.70;99.90
25668;DHT22;18003;-33.830;151.202;2023-05-16T07:31:23;16.70;99.90
25668;DHT22;18003;-33.830;151.202;2023-05-16T07:33:53;16.70;99.90
25668;DHT22;18003;-33.830;151.202;2023-05-16T07:36:23;16.70;99.90
25668;DHT22;18003;-33.830;151.202;2023-05-16T07:38:53;16.70;99.90
25668;DHT22;18003;-33.830;151.202;2023-05-16T07:41:23;16.70;99.90
25668;DHT22;18003;-33.830;151.202;2023-05-16T07:43:53;16.70;99.90
25668;DHT22;18003;-33.830;151.202;2023-05-16T07:46:23;16.70;99.90
25668;DHT22;18003;-33.830;151.202;2023-05-16T07:48:53;16.70;99.90
25668;DHT22;18003;-33.830;151.202;2023-05-16T07:51:23;16.70;99.90
25668;DHT22;18003;-33.830;151.202;2023-05-16T07:53:53;16.80;99.90
25668;DHT22;18003;-33.830;151.202;2023-05-16T07:56:24;16.70;99.90
25668;DHT22;18003;-33.830;151.202;2023-05-16T07:58:54;16.70;99.90
25668;DHT22;18003;-33.830;151.202;2023-05-16T08:01:27;16.70;99.90
25668;DHT22;18003;-33.830;151.202;2023-05-16T08:03:55;16.70;99.90
25668;DHT22;18003;-33.830;151.202;2023-05-16T08:06:25;16.70;99.90
25668;DHT22;18003;-33.830;151.202;2023-05-16T08:08:54;16.70;99.90
25668;DHT22;18003;-33.830;151.202;2023-05-16T08:11:25;16.70;99.90
25668;DHT22;18003;-33.830;151.202;2023-05-16T08:13:55;16.70;99.90
25668;DHT22;18003;-33.830;151.202;2023-05-16T08:16:25;16.70;99.90
25668;DHT22;18003;-33.830;151.202;2023-05-16T08:18:55;16.70;99.90
25668;DHT22;18003;-33.830;151.202;2023-05-16T08:21:25;16.70;99.90
25668;DHT22;18003;-33.830;151.202;2023-05-16T08:23:55;16.70;99.90
25668;DHT22;18003;-33.830;151.202;2023-05-16T08:26:25;16.60;99.90
25668;DHT22;18003;-33.830;151.202;2023-05-16T08:28:55;16.60;99.90
25668;DHT22;18003;-33.830;151.202;2023-05-16T08:31:25;16.60;99.90
25668;DHT22;18003;-33.830;151.202;2023-05-16T08:33:55;16.60;99.90
25668;DHT22;18003;-33.830;151.202;2023-05-16T08:36:27;16.60;99.90
25668;DHT22;18003;-33.830;151.202;2023-05-16T08:38:56;16.60;99.90
25668;DHT22;18003;-33.830;151.202;2023-05-16T08:41:26;16.60;99.90
25668;DHT22;18003;-33.830;151.202;2023-05-16T08:43:56;16.60;99.90
25668;DHT22;18003;-33.830;151.202;2023-05-16T08:46:28;16.50;99.90
25668;DHT22;18003;-33.830;151.202;2023-05-16T08:48:59;16.60;99.90
25668;DHT22;18003;-33.830;151.202;2023-05-16T08:51:31;16.60;99.90
25668;DHT22;18003;-33.830;151.202;2023-05-16T08:54:10;16.60;99.90
25668;DHT22;18003;-33.830;151.202;2023-05-16T08:56:39;16.50;99.90
25668;DHT22;18003;-33.830;151.202;2023-05-16T08:59:10;16.50;99.90
25668;DHT22;18003;-33.830;151.202;2023-05-16T09:01:44;16.50;99.90
25668;DHT22;18003;-33.830;151.202;2023-05-16T09:04:15;16.50;99.90
25668;DHT22;18003;-33.830;151.202;2023-05-16T09:06:45;16.50;99.90
25668;DHT22;18003;-33.830;151.202;2023-05-16T09:09:15;16.50;99.90
25668;DHT22;18003;-33.830;151.202;2023-05-16T09:11:46;16.50;99.90
25668;DHT22;18003;-33.830;151.202;2023-05-16T09:14:16;16.50;99.90
25668;DHT22;18003;-33.830;151.202;2023-05-16T09:16:47;16.50;99.90
25668;DHT22;18003;-33.830;151.202;2023-05-16T09:19:16;16.50;99.90
25668;DHT22;18003;-33.830;151.202;2023-05-16T09:21:46;16.40;99.90
25668;DHT22;18003;-33.830;151.202;2023-05-16T09:24:16;16.40;99.90
25668;DHT22;18003;-33.830;151.202;2023-05-16T09:26:47;16.40;99.90
25668;DHT22;18003;-33.830;151.202;2023-05-16T09:29:17;16.40;99.90
25668;DHT22;18003;-33.830;151.202;2023-05-16T09:31:48;16.40;99.90
25668;DHT22;18003;-33.830;151.202;2023-05-16T09:34:19;16.40;99.90
25668;DHT22;18003;-33.830;151.202;2023-05-16T09:36:53;16.40;99.90
25668;DHT22;18003;-33.830;151.202;2023-05-16T09:39:24;16.40;99.90
25668;DHT22;18003;-33.830;151.202;2023-05-16T09:41:53;16.40;99.90
25668;DHT22;18003;-33.830;151.202;2023-05-16T09:44:23;16.40;99.90
25668;DHT22;18003;-33.830;151.202;2023-05-16T09:46:54;16.40;99.90
25668;DHT22;18003;-33.830;151.202;2023-05-16T09:49:24;16.40;99.90
25668;DHT22;18003;-33.830;151.202;2023-05-16T09:51:54;16.40;99.90
25668;DHT22;18003;-33.830;151.202;2023-05-16T09:54:31;16.40;99.90
25668;DHT22;18003;-33.830;151.202;2023-05-16T09:57:01;16.40;99.90
25668;DHT22;18003;-33.830;151.202;2023-05-16T09:59:37;16.40;99.90
25668;DHT22;18003;-33.830;151.202;2023-05-16T10:02:08;16.40;99.90
25668;DHT22;18003;-33.830;151.202;2023-05-16T10:04:39;16.40;99.90
25668;DHT22;18003;-33.830;151.202;2023-05-16T10:07:09;16.40;99.90
25668;DHT22;18003;-33.830;151.202;2023-05-16T10:09:40;16.40;99.90
25668;DHT22;18003;-33.830;151.202;2023-05-16T10:12:12;16.40;99.90
25668;DHT22;18003;-33.830;151.202;2023-05-16T10:14:44;16.40;99.90
25668;DHT22;18003;-33.830;151.202;2023-05-16T10:17:16;16.40;99.90
25668;DHT22;18003;-33.830;151.202;2023-05-16T10:19:47;16.40;99.90
25668;DHT22;18003;-33.830;151.202;2023-05-16T10:22:19;16.40;99.90
25668;DHT22;18003;-33.830;151.202;2023-05-16T10:25:03;16.40;99.90
25668;DHT22;18003;-33.830;151.202;2023-05-16T10:27:31;16.40;99.90
25668;DHT22;18003;-33.830;151.202;2023-05-16T10:30:02;16.40;99.90
25668;DHT22;18003;-33.830;151.202;2023-05-16T10:32:33;16.30;99.90
25668;DHT22;18003;-33.830;151.202;2023-05-16T10:35:03;16.40;99.90
25668;DHT22;18003;-33.830;151.202;2023-05-16T10:37:35;16.50;99.90
25668;DHT22;18003;-33.830;151.202;2023-05-16T10:40:06;16.60;99.90
25668;DHT22;18003;-33.830;151.202;2023-05-16T10:42:36;16.80;99.90
25668;DHT22;18003;-33.830;151.202;2023-05-16T10:45:22;16.90;99.90
25668;DHT22;18003;-33.830;151.202;2023-05-16T10:47:56;17.00;99.90
25668;DHT22;18003;-33.830;151.202;2023-05-16T10:50:39;17.10;99.90
25668;DHT22;18003;-33.830;151.202;2023-05-16T10:53:20;17.10;99.90
25668;DHT22;18003;-33.830;151.202;2023-05-16T11:01:25;17.20;99.90
25668;DHT22;18003;-33.830;151.202;2023-05-16T11:04:06;17.20;99.90
25668;DHT22;18003;-33.830;151.202;2023-05-16T11:06:44;17.20;99.90
25668;DHT22;18003;-33.830;151.202;2023-05-16T11:09:19;17.20;99.90
25668;DHT22;18003;-33.830;151.202;2023-05-16T11:19:54;17.20;99.90
25668;DHT22;18003;-33.830;151.202;2023-05-16T11:22:29;17.20;99.90
25668;DHT22;18003;-33.830;151.202;2023-05-16T11:25:09;17.20;99.90
25668;DHT22;18003;-33.830;151.202;2023-05-16T11:27:46;17.20;99.90
25668;DHT22;18003;-33.830;151.202;2023-05-16T11:30:16;17.20;99.90
25668;DHT22;18003;-33.830;151.202;2023-05-16T11:32:50;17.10;99.90
25668;DHT22;18003;-33.830;151.202;2023-05-16T11:35:20;17.10;99.90
25668;DHT22;18003;-33.830;151.202;2023-05-16T11:37:50;17.10;99.90
25668;DHT22;18003;-33.830;151.202;2023-05-16T11:40:21;17.10;99.90
25668;DHT22;18003;-33.830;151.202;2023-05-16T11:42:51;17.10;99.90
25668;DHT22;18003;-33.830;151.202;2023-05-16T11:45:21;17.00;99.90
25668;DHT22;18003;-33.830;151.202;2023-05-16T11:47:52;17.00;99.90
25668;DHT22;18003;-33.830;151.202;2023-05-16T11:50:23;16.90;99.90
25668;DHT22;18003;-33.830;151.202;2023-05-16T11:52:53;16.90;99.90
25668;DHT22;18003;-33.830;151.202;2023-05-16T11:55:25;16.90;99.90
25668;DHT22;18003;-33.830;151.202;2023-05-16T11:57:59;16.90;99.90
25668;DHT22;18003;-33.830;151.202;2023-05-16T12:00:29;16.90;99.90
25668;DHT22;18003;-33.830;151.202;2023-05-16T12:03:03;16.90;99.90
25668;DHT22;18003;-33.830;151.202;2023-05-16T12:05:33;16.80;99.90
25668;DHT22;18003;-33.830;151.202;2023-05-16T12:08:03;16.80;99.90
25668;DHT22;18003;-33.830;151.202;2023-05-16T12:10:34;16.80;99.90
25668;DHT22;18003;-33.830;151.202;2023-05-16T12:13:04;16.80;99.90
25668;DHT22;18003;-33.830;151.202;2023-05-16T12:15:34;16.80;99.90
25668;DHT22;18003;-33.830;151.202;2023-05-16T12:18:04;16.70;99.90
25668;DHT22;18003;-33.830;151.202;2023-05-16T12:20:34;16.70;99.90
25668;DHT22;18003;-33.830;151.202;2023-05-16T12:23:05;16.70;99.90
25668;DHT22;18003;-33.830;151.202;2023-05-16T12:25:36;16.70;99.90
25668;DHT22;18003;-33.830;151.202;2023-05-16T12:28:07;16.70;99.90
25668;DHT22;18003;-33.830;151.202;2023-05-16T12:30:43;16.70;99.90
25668;DHT22;18003;-33.830;151.202;2023-05-16T12:33:15;16.70;99.90
25668;DHT22;18003;-33.830;151.202;2023-05-16T12:35:42;16.70;99.90
25668;DHT22;18003;-33.830;151.202;2023-05-16T12:38:13;16.70;99.90
25668;DHT22;18003;-33.830;151.202;2023-05-16T12:40:44;16.80;99.90
25668;DHT22;18003;-33.830;151.202;2023-05-16T12:43:19;16.80;99.90
25668;DHT22;18003;-33.830;151.202;2023-05-16T12:45:51;16.70;99.90
25668;DHT22;18003;-33.830;151.202;2023-05-16T12:48:28;16.70;99.90
25668;DHT22;18003;-33.830;151.202;2023-05-16T12:50:52;16.70;99.90
25668;DHT22;18003;-33.830;151.202;2023-05-16T12:53:22;16.80;99.90
25668;DHT22;18003;-33.830;151.202;2023-05-16T12:55:52;16.70;99.90
25668;DHT22;18003;-33.830;151.202;2023-05-16T12:58:22;16.80;99.90
25668;DHT22;18003;-33.830;151.202;2023-05-16T13:00:53;16.70;99.90
25668;DHT22;18003;-33.830;151.202;2023-05-16T13:03:23;16.80;99.90
25668;DHT22;18003;-33.830;151.202;2023-05-16T13:05:53;16.70;99.90
25668;DHT22;18003;-33.830;151.202;2023-05-16T13:08:23;16.80;99.90
25668;DHT22;18003;-33.830;151.202;2023-05-16T13:10:53;16.70;99.90
25668;DHT22;18003;-33.830;151.202;2023-05-16T13:13:24;16.80;99.90
25668;DHT22;18003;-33.830;151.202;2023-05-16T13:15:53;16.80;99.90
25668;DHT22;18003;-33.830;151.202;2023-05-16T13:18:23;16.80;99.90
25668;DHT22;18003;-33.830;151.202;2023-05-16T13:20:54;16.80;99.90
25668;DHT22;18003;-33.830;151.202;2023-05-16T13:23:24;16.80;99.90
25668;DHT22;18003;-33.830;151.202;2023-05-16T13:25:54;16.90;99.90
25668;DHT22;18003;-33.830;151.202;2023-05-16T13:28:24;16.90;99.90
25668;DHT22;18003;-33.830;151.202;2023-05-16T13:30:54;16.90;99.90
25668;DHT22;18003;-33.830;151.202;2023-05-16T13:33:24;16.90;99.90
25668;DHT22;18003;-33.830;151.202;2023-05-16T13:35:54;16.90;99.90
25668;DHT22;18003;-33.830;151.202;2023-05-16T13:38:24;16.90;99.90
25668;DHT22;18003;-33.830;151.202;2023-05-16T13:40:54;16.90;99.90
25668;DHT22;18003;-33.830;151.202;2023-05-16T13:43:24;16.80;99.90
25668;DHT22;18003;-33.830;151.202;2023-05-16T13:45:55;16.80;99.90
25668;DHT22;18003;-33.830;151.202;2023-05-16T13:48:25;16.80;99.90
25668;DHT22;18003;-33.830;151.202;2023-05-16T13:50:55;16.80;99.90
25668;DHT22;18003;-33.830;151.202;2023-05-16T13:53:25;16.80;99.90
25668;DHT22;18003;-33.830;151.202;2023-05-16T13:55:55;16.90;99.90
25668;DHT22;18003;-33.830;151.202;2023-05-16T13:58:25;16.80;99.90
25668;DHT22;18003;-33.830;151.202;2023-05-16T14:00:55;16.70;99.90
25668;DHT22;18003;-33.830;151.202;2023-05-16T14:03:25;16.70;99.90
25668;DHT22;18003;-33.830;151.202;2023-05-16T14:05:55;16.70;99.90
25668;DHT22;18003;-33.830;151.202;2023-05-16T14:08:25;16.70;99.90
25668;DHT22;18003;-33.830;151.202;2023-05-16T14:10:56;16.70;99.90
25668;DHT22;18003;-33.830;151.202;2023-05-16T14:13:26;16.70;99.90
25668;DHT22;18003;-33.830;151.202;2023-05-16T14:15:56;16.70;99.90
25668;DHT22;18003;-33.830;151.202;2023-05-16T14:18:26;16.70;99.90
25668;DHT22;18003;-33.830;151.202;2023-05-16T14:20:56;16.70;99.90
25668;DHT22;18003;-33.830;151.202;2023-05-16T14:23:29;16.70;99.90
25668;DHT22;18003;-33.830;151.202;2023-05-16T14:25:59;16.70;99.90
25668;DHT22;18003;-33.830;151.202;2023-05-16T14:28:29;16.70;99.90
25668;DHT22;18003;-33.830;151.202;2023-05-16T14:31:00;16.70;99.90
25668;DHT22;18003;-33.830;151.202;2023-05-16T14:33:32;16.80;99.90
25668;DHT22;18003;-33.830;151.202;2023-05-16T14:36:02;16.70;99.90
25668;DHT22;18003;-33.830;151.202;2023-05-16T14:38:32;16.70;99.90
25668;DHT22;18003;-33.830;151.202;2023-05-16T14:41:02;16.70;99.90
25668;DHT22;18003;-33.830;151.202;2023-05-16T14:43:32;16.70;99.90
25668;DHT22;18003;-33.830;151.202;2023-05-16T14:46:02;16.70;99.90
25668;DHT22;18003;-33.830;151.202;2023-05-16T14:48:33;16.70;99.90
25668;DHT22;18003;-33.830;151.202;2023-05-16T14:51:03;16.70;99.90
25668;DHT22;18003;-33.830;151.202;2023-05-16T14:53:33;16.60;99.90
25668;DHT22;18003;-33.830;151.202;2023-05-16T14:56:04;16.60;99.90
25668;DHT22;18003;-33.830;151.202;2023-05-16T14:58:34;16.60;99.90
25668;DHT22;18003;-33.830;151.202;2023-05-16T15:01:04;16.60;99.90
25668;DHT22;18003;-33.830;151.202;2023-05-16T15:03:34;16.60;99.90
25668;DHT22;18003;-33.830;151.202;2023-05-16T15:06:04;16.60;99.90
25668;DHT22;18003;-33.830;151.202;2023-05-16T15:08:34;16.50;99.90
25668;DHT22;18003;-33.830;151.202;2023-05-16T15:11:05;16.60;99.90
25668;DHT22;18003;-33.830;151.202;2023-05-16T15:13:35;16.60;99.90
25668;DHT22;18003;-33.830;151.202;2023-05-16T15:16:06;16.60;99.90
25668;DHT22;18003;-33.830;151.202;2023-05-16T15:18:36;16.60;99.90
25668;DHT22;18003;-33.830;151.202;2023-05-16T15:21:07;16.60;99.90
25668;DHT22;18003;-33.830;151.202;2023-05-16T15:23:37;16.60;99.90
25668;DHT22;18003;-33.830;151.202;2023-05-16T15:26:07;16.60;99.90
25668;DHT22;18003;-33.830;151.202;2023-05-16T15:28:37;16.60;99.90
25668;DHT22;18003;-33.830;151.202;2023-05-16T15:31:07;16.60;99.90
25668;DHT22;18003;-33.830;151.202;2023-05-16T15:33:37;16.60;99.90
25668;DHT22;18003;-33.830;151.202;2023-05-16T15:36:07;16.60;99.90